Time;durP1;ratioP1;P1;durP2;ratioP2;P2;SDS_P1;SDS_P2;PMS_P1;PMS_P2;Temp;Humidity;BMP_temperature;BMP_pressure;BME280_temperature;BME280_humidity;BME280_pressure;Samples;Min_cycle;Max_cycle;Signal;HPM_P1;HPM_P2
2022/09/23 00:01:27;;;;;;;4.82;3.10;;;12.20;83.60;;;;;;5047920;28;20104;-56
2022/09/23 00:03:53;;;;;;;4.10;3.20;;;12.20;83.10;;;;;;5046725;28;20024;-56
2022/09/23 00:06:23;;;;;;;4.43;3.30;;;12.10;83.20;;;;;;5047136;28;20437;-57
2022/09/23 00:08:49;;;;;;;;;;;12.10;83.30;;;;;;5047046;28;20087;-55
2022/09/23 00:11:18;;;;;;;4.70;3.17;;;12.00;83.20;;;;;;5048175;28;20280;-56
2022/09/23 00:13:46;;;;;;;4.78;3.30;;;12.00;83.60;;;;;;5048758;28;20021;-55
2022/09/23 00:16:14;;;;;;;4.35;3.25;;;12.00;83.60;;;;;;5047248;28;20068;-56
2022/09/23 00:18:41;;;;;;;5.03;3.45;;;12.00;83.80;;;;;;5039866;28;20032;-54
2022/09/23 00:21:09;;;;;;;3.97;3.30;;;12.00;83.90;;;;;;5049413;28;20019;-56
2022/09/23 00:23:35;;;;;;;4.13;3.10;;;12.00;84.00;;;;;;5043836;28;20563;-55
2022/09/23 00:26:03;;;;;;;6.13;3.80;;;12.00;84.10;;;;;;5036387;28;20038;-55
2022/09/23 00:28:29;;;;;;;6.00;3.65;;;12.00;84.20;;;;;;5042263;28;20028;-56
2022/09/23 00:30:55;;;;;;;4.95;3.47;;;12.00;84.30;;;;;;5047947;28;20503;-56
2022/09/23 00:33:21;;;;;;;5.15;3.78;;;11.90;84.30;;;;;;5049089;28;20025;-56
2022/09/23 00:35:46;;;;;;;4.57;3.22;;;11.90;84.50;;;;;;5047283;28;20102;-55
2022/09/23 00:38:13;;;;;;;5.05;3.60;;;11.90;84.60;;;;;;5052828;28;20083;-56
2022/09/23 00:40:45;;;;;;;5.30;3.40;;;11.90;84.80;;;;;;5044199;28;20578;-55
2022/09/23 00:43:12;;;;;;;4.75;3.65;;;11.90;84.80;;;;;;5046428;28;20484;-56
2022/09/23 00:45:39;;;;;;;5.70;3.83;;;11.90;84.90;;;;;;5046724;28;20048;-54
2022/09/23 00:48:09;;;;;;;5.20;4.07;;;11.90;84.90;;;;;;5039649;28;20075;-56
2022/09/23 00:50:41;;;;;;;5.10;3.72;;;11.90;84.90;;;;;;5048318;28;20021;-56
2022/09/23 00:53:12;;;;;;;5.18;3.80;;;11.90;84.90;;;;;;5037607;28;20508;-56
2022/09/23 00:55:40;;;;;;;6.28;4.05;;;11.80;85.00;;;;;;5048359;28;20021;-55
2022/09/23 00:58:10;;;;;;;5.03;3.50;;;11.80;85.20;;;;;;5055262;28;20028;-55
2022/09/23 01:00:36;;;;;;;;;;;11.80;85.30;;;;;;5045565;28;20025;-56
2022/09/23 01:03:03;;;;;;;4.45;3.30;;;11.70;85.20;;;;;;5043867;28;19955;-56
2022/09/23 01:05:30;;;;;;;4.53;3.70;;;11.70;85.50;;;;;;5053656;28;20025;-55
2022/09/23 01:07:57;;;;;;;5.38;3.85;;;11.70;85.50;;;;;;5052059;28;20031;-55
2022/09/23 01:10:23;;;;;;;4.22;3.47;;;11.70;86.20;;;;;;5047951;28;20032;-56
2022/09/23 01:13:04;;;;;;;5.00;3.63;;;11.70;85.70;;;;;;5056183;28;20021;-57
2022/09/23 01:15:56;;;;;;;5.68;4.00;;;11.70;85.80;;;;;;5045676;28;20021;-56
2022/09/23 01:18:42;;;;;;;6.43;3.30;;;11.70;85.90;;;;;;5059144;28;20021;-55
2022/09/23 01:21:14;;;;;;;5.28;3.67;;;11.60;86.00;;;;;;5044608;28;20105;-56
2022/09/23 01:24:13;;;;;;;5.28;3.60;;;11.60;86.60;;;;;;5043441;28;20648;-56
2022/09/23 01:26:48;;;;;;;5.20;4.05;;;11.60;86.50;;;;;;5046786;28;20570;-54
2022/09/23 01:29:16;;;;;;;4.90;3.92;;;11.50;86.60;;;;;;5043339;28;20021;-56
2022/09/23 01:32:06;;;;;;;5.50;4.07;;;11.50;86.80;;;;;;5042981;28;20104;-56
2022/09/23 01:35:07;;;;;;;5.95;4.68;;;11.50;87.00;;;;;;5041716;28;20076;-56
2022/09/23 01:37:36;;;;;;;6.50;4.53;;;11.40;87.10;;;;;;4975077;28;20022;-56
2022/09/23 01:40:21;;;;;;;5.27;4.23;;;11.40;87.60;;;;;;5023689;28;20110;-56
2022/09/23 01:43:01;;;;;;;6.10;4.13;;;11.40;87.70;;;;;;5047486;28;20379;-57
2022/09/23 01:45:34;;;;;;;6.47;3.88;;;11.40;88.00;;;;;;5041202;28;20025;-55
2022/09/23 01:48:21;;;;;;;6.03;4.80;;;11.40;88.00;;;;;;5035696;28;20079;-56
2022/09/23 01:50:56;;;;;;;5.55;4.28;;;11.40;88.00;;;;;;5046067;28;20519;-55
2022/09/23 01:53:31;;;;;;;6.05;3.70;;;11.30;88.10;;;;;;5042972;28;20033;-56
2022/09/23 01:56:03;;;;;;;6.53;4.43;;;11.40;88.20;;;;;;5043053;28;20017;-56
2022/09/23 01:58:41;;;;;;;10.10;5.10;;;11.30;88.20;;;;;;5048092;28;20025;-56
2022/09/23 02:01:14;;;;;;;5.28;3.92;;;11.30;88.40;;;;;;5035332;28;20096;-55
2022/09/23 02:03:55;;;;;;;4.68;4.13;;;11.30;88.50;;;;;;5040375;28;20059;-53
2022/09/23 02:06:27;;;;;;;5.28;3.80;;;11.30;88.60;;;;;;5043727;28;20049;-55
2022/09/23 02:08:59;;;;;;;7.10;5.32;;;11.30;88.80;;;;;;5039996;28;20021;-54
2022/09/23 02:11:25;;;;;;;6.50;5.03;;;11.20;89.20;;;;;;5039184;28;20366;-55
2022/09/23 02:14:02;;;;;;;6.65;5.00;;;11.10;89.50;;;;;;5045725;28;20024;-55
2022/09/23 02:16:40;;;;;;;9.10;5.00;;;11.10;89.90;;;;;;5057633;28;20032;-56
2022/09/23 02:19:14;;;;;;;6.38;4.60;;;11.10;89.80;;;;;;5061013;28;20074;-54
2022/09/23 02:21:46;;;;;;;5.43;4.00;;;11.10;90.00;;;;;;5037770;28;20057;-55
2022/09/23 02:24:15;;;;;;;5.60;4.93;;;11.10;90.00;;;;;;5044845;28;20488;-55
2022/09/23 02:27:10;;;;;;;6.30;4.97;;;11.10;90.10;;;;;;5040819;28;20032;-55
2022/09/23 02:30:10;;;;;;;6.95;5.45;;;11.10;90.10;;;;;;5031575;28;20030;-55
2022/09/23 02:32:58;;;;;;;6.45;4.95;;;11.00;90.20;;;;;;5040672;28;20537;-55
2022/09/23 02:35:29;;;;;;;6.43;5.15;;;11.00;90.40;;;;;;5042774;28;20128;-55
2022/09/23 02:38:35;;;;;;;6.72;4.88;;;10.90;90.40;;;;;;5046843;28;20067;-55
2022/09/23 02:41:10;;;;;;;5.85;4.50;;;11.00;90.30;;;;;;5014921;28;20512;-55
2022/09/23 02:43:41;;;;;;;7.88;4.85;;;11.10;90.40;;;;;;5049402;28;20029;-54
2022/09/23 02:46:08;;;;;;;5.85;4.53;;;11.00;90.40;;;;;;5043890;28;20536;-54
2022/09/23 02:48:40;;;;;;;6.93;5.40;;;11.00;90.40;;;;;;5049029;28;20052;-53
2022/09/23 02:51:07;;;;;;;9.57;5.30;;;11.00;90.60;;;;;;5049322;28;20020;-56
2022/09/23 02:53:33;;;;;;;5.80;4.60;;;10.90;90.70;;;;;;5041027;28;20477;-56
2022/09/23 02:56:00;;;;;;;7.63;5.05;;;10.90;90.70;;;;;;5042954;28;20039;-55
2022/09/23 02:58:26;;;;;;;5.40;4.25;;;11.00;90.80;;;;;;5046366;28;20064;-55
2022/09/23 03:00:58;;;;;;;5.90;4.85;;;11.00;90.80;;;;;;5043133;28;20035;-55
2022/09/23 03:03:39;;;;;;;9.35;5.78;;;10.90;90.80;;;;;;5047275;28;20052;-56
2022/09/23 03:06:38;;;;;;;10.02;6.13;;;10.90;90.90;;;;;;5045727;28;20057;-56
2022/09/23 03:09:11;;;;;;;8.05;5.97;;;10.80;91.10;;;;;;5041609;28;20501;-56
2022/09/23 03:11:45;;;;;;;12.32;8.00;;;10.80;91.40;;;;;;5045880;28;20086;-55
2022/09/23 03:14:27;;;;;;;11.30;7.85;;;10.70;92.10;;;;;;5044084;28;20021;-56
2022/09/23 03:17:04;;;;;;;8.93;8.02;;;10.60;92.70;;;;;;5057403;28;20024;-55
2022/09/23 03:19:46;;;;;;;11.23;9.02;;;10.50;93.30;;;;;;5046938;28;20025;-54
2022/09/23 03:22:23;;;;;;;10.90;8.00;;;10.50;93.90;;;;;;5048100;28;20031;-55
2022/09/23 03:24:51;;;;;;;10.98;9.35;;;10.40;94.40;;;;;;5031391;28;20028;-55
2022/09/23 03:27:24;;;;;;;12.73;8.23;;;10.40;94.90;;;;;;5046960;28;20032;-55
2022/09/23 03:29:52;;;;;;;9.73;7.60;;;10.30;95.20;;;;;;5048679;28;20056;-55
2022/09/23 03:32:21;;;;;;;12.43;9.38;;;10.30;95.40;;;;;;5048474;28;20030;-55
2022/09/23 03:34:50;;;;;;;10.18;8.15;;;10.30;95.70;;;;;;5048804;28;20123;-56
2022/09/23 03:37:40;;;;;;;13.25;8.65;;;10.30;95.90;;;;;;5045195;28;20071;-56
2022/09/23 03:40:15;;;;;;;10.05;8.48;;;10.30;96.10;;;;;;5048672;28;20515;-56
2022/09/23 03:42:41;;;;;;;9.80;8.25;;;10.20;96.50;;;;;;5044290;28;20047;-55
2022/09/23 03:45:11;;;;;;;12.45;8.50;;;10.20;96.70;;;;;;5045743;28;20028;-56
2022/09/23 03:47:38;;;;;;;10.75;7.88;;;10.20;96.80;;;;;;5043314;28;20056;-56
2022/09/23 03:50:05;;;;;;;10.93;7.68;;;10.20;96.90;;;;;;5041368;28;20553;-56
2022/09/23 03:52:30;;;;;;;10.25;7.60;;;10.20;97.00;;;;;;5043562;28;20033;-56
2022/09/23 03:54:56;;;;;;;10.88;8.93;;;10.20;97.10;;;;;;5030214;28;20516;-56
2022/09/23 03:57:23;;;;;;;8.98;7.07;;;10.10;97.20;;;;;;5061954;28;20382;-56
2022/09/23 03:59:49;;;;;;;8.75;6.43;;;10.10;97.20;;;;;;5048267;28;20485;-56
2022/09/23 04:02:16;;;;;;;7.35;5.68;;;10.20;97.20;;;;;;5047719;28;20033;-56
2022/09/23 04:04:42;;;;;;;7.50;5.25;;;10.20;97.10;;;;;;5047522;28;20029;-54
2022/09/23 04:07:10;;;;;;;5.10;4.40;;;10.20;96.90;;;;;;5059102;28;20040;-55
2022/09/23 04:09:36;;;;;;;8.30;4.85;;;10.30;96.80;;;;;;5042341;28;20029;-55
2022/09/23 04:12:02;;;;;;;8.40;7.07;;;10.30;96.70;;;;;;5044797;28;20308;-56
2022/09/23 04:14:28;;;;;;;9.57;7.38;;;10.30;96.70;;;;;;5040857;28;20025;-56
2022/09/23 04:16:54;;;;;;;12.50;7.97;;;10.20;96.70;;;;;;5047205;28;20036;-55
2022/09/23 04:19:19;;;;;;;10.30;8.45;;;10.20;97.00;;;;;;5045420;28;20025;-56
2022/09/23 04:21:48;;;;;;;10.98;8.02;;;10.10;97.20;;;;;;5047029;28;20028;-55
2022/09/23 04:24:15;;;;;;;16.05;8.10;;;10.10;97.40;;;;;;5047379;28;20090;-55
2022/09/23 04:26:41;;;;;;;8.80;7.32;;;10.10;97.70;;;;;;5044429;28;20039;-55
2022/09/23 04:29:07;;;;;;;9.20;7.85;;;10.00;97.90;;;;;;5043991;28;20049;-55
2022/09/23 04:31:33;;;;;;;9.88;8.18;;;10.00;98.10;;;;;;5045191;28;20464;-56
2022/09/23 04:33:59;;;;;;;10.35;8.43;;;10.00;98.30;;;;;;5047825;28;20341;-56
2022/09/23 04:36:25;;;;;;;10.00;8.10;;;10.00;98.50;;;;;;5042513;28;20481;-55
2022/09/23 04:38:50;;;;;;;13.30;8.55;;;9.90;98.60;;;;;;5042471;28;20031;-56
2022/09/23 04:41:18;;;;;;;15.65;8.75;;;10.00;98.70;;;;;;5058210;28;20412;-54
2022/09/23 04:43:51;;;;;;;13.60;8.70;;;9.90;98.80;;;;;;5042593;28;20029;-55
2022/09/23 04:46:17;;;;;;;10.07;7.97;;;9.90;99.00;;;;;;5041431;28;20036;-54
2022/09/23 04:48:43;;;;;;;9.77;8.02;;;9.90;99.00;;;;;;5048530;28;20025;-55
2022/09/23 04:51:17;;;;;;;10.55;8.13;;;9.90;99.00;;;;;;5044254;28;20017;-55
2022/09/23 04:53:44;;;;;;;9.35;8.15;;;9.90;99.10;;;;;;5037583;28;20040;-56
2022/09/23 04:56:16;;;;;;;11.43;6.60;;;9.90;99.10;;;;;;5044482;28;20284;-56
2022/09/23 04:58:42;;;;;;;10.27;7.28;;;9.90;99.40;;;;;;5037450;28;20053;-55
2022/09/23 05:01:16;;;;;;;9.10;6.85;;;9.90;99.00;;;;;;5046238;28;20380;-56
2022/09/23 05:03:43;;;;;;;9.80;7.50;;;9.90;99.00;;;;;;5050178;28;20021;-56
2022/09/23 05:06:12;;;;;;;9.90;7.75;;;9.90;99.00;;;;;;5052439;28;20024;-56
2022/09/23 05:08:39;;;;;;;9.25;7.50;;;9.90;99.20;;;;;;5052909;28;20021;-55
2022/09/23 05:11:05;;;;;;;9.68;7.25;;;9.80;99.30;;;;;;5052664;28;20032;-55
2022/09/23 05:13:31;;;;;;;11.65;8.23;;;9.80;99.40;;;;;;5052362;28;20029;-55
2022/09/23 05:16:02;;;;;;;8.30;7.30;;;9.80;99.60;;;;;;5050769;28;20092;-55
2022/09/23 05:18:32;;;;;;;8.43;7.15;;;9.80;99.70;;;;;;5052584;28;20028;-56
2022/09/23 05:20:57;;;;;;;12.20;7.38;;;9.80;99.80;;;;;;5067661;28;20023;-55
2022/09/23 05:23:23;;;;;;;10.82;7.82;;;9.80;99.70;;;;;;5052704;28;20124;-55
2022/09/23 05:25:55;;;;;;;14.07;8.23;;;9.80;99.80;;;;;;5048349;28;20021;-53
2022/09/23 05:28:20;;;;;;;10.85;8.00;;;9.80;99.90;;;;;;5037320;28;20043;-56
2022/09/23 05:30:46;;;;;;;12.43;7.82;;;9.80;99.90;;;;;;5051113;28;20385;-56
2022/09/23 05:33:11;;;;;;;10.85;7.25;;;9.80;99.90;;;;;;5051281;28;20028;-56
2022/09/23 05:35:37;;;;;;;9.73;7.53;;;9.80;99.90;;;;;;5052429;28;20017;-55
2022/09/23 05:38:02;;;;;;;8.45;7.10;;;9.80;99.90;;;;;;5047793;28;20021;-56
2022/09/23 05:40:28;;;;;;;14.80;7.82;;;9.80;99.90;;;;;;5041366;28;20037;-56
2022/09/23 05:42:53;;;;;;;10.23;8.20;;;9.70;99.90;;;;;;5040605;28;20163;-56
2022/09/23 05:45:19;;;;;;;9.27;7.60;;;9.80;99.90;;;;;;5050898;28;20163;-53
2022/09/23 05:47:45;;;;;;;11.30;7.88;;;9.70;99.90;;;;;;5047394;28;20025;-54
2022/09/23 05:50:11;;;;;;;9.20;7.63;;;9.80;99.90;;;;;;5048092;28;20103;-57
2022/09/23 05:52:36;;;;;;;10.57;7.20;;;9.80;99.90;;;;;;5050057;28;20025;-54
2022/09/23 05:55:02;;;;;;;11.80;8.18;;;9.80;99.90;;;;;;5038597;28;20029;-55
2022/09/23 05:57:28;;;;;;;11.27;7.88;;;9.80;99.90;;;;;;5046478;28;20032;-56
2022/09/23 05:59:53;;;;;;;9.60;7.72;;;9.80;99.90;;;;;;5050465;28;20092;-55
2022/09/23 06:02:19;;;;;;;11.10;8.07;;;9.80;99.90;;;;;;5052159;28;20036;-56
2022/09/23 06:04:44;;;;;;;9.30;8.00;;;9.80;99.90;;;;;;5050755;28;20017;-55
2022/09/23 06:07:10;;;;;;;9.68;8.05;;;9.80;99.90;;;;;;5049833;28;20086;-55
2022/09/23 06:09:35;;;;;;;10.80;7.57;;;9.80;99.90;;;;;;5047765;28;20033;-56
2022/09/23 06:12:01;;;;;;;12.68;8.68;;;9.90;99.90;;;;;;5052254;28;20032;-56
2022/09/23 06:14:27;;;;;;;10.68;7.78;;;9.90;99.90;;;;;;5049010;28;20366;-55
2022/09/23 06:16:53;;;;;;;11.00;8.55;;;9.90;99.90;;;;;;5046246;28;20021;-55
2022/09/23 06:19:18;;;;;;;15.77;9.10;;;9.90;99.90;;;;;;5048285;28;20029;-56
2022/09/23 06:21:44;;;;;;;9.57;8.02;;;9.90;99.90;;;;;;5044079;28;20021;-53
2022/09/23 06:24:09;;;;;;;10.73;8.70;;;9.90;99.90;;;;;;5051275;28;20253;-55
2022/09/23 06:26:41;;;;;;;10.27;8.32;;;9.90;99.90;;;;;;5062098;28;20021;-57
2022/09/23 06:29:11;;;;;;;12.20;8.10;;;9.90;99.90;;;;;;5050699;28;20056;-56
2022/09/23 06:31:37;;;;;;;9.57;8.35;;;10.00;99.90;;;;;;5045081;28;20104;-55
2022/09/23 06:34:03;;;;;;;9.63;8.23;;;10.00;99.90;;;;;;5047803;28;20018;-56
2022/09/23 06:36:29;;;;;;;11.05;8.38;;;10.00;99.90;;;;;;5050259;28;20469;-56
2022/09/23 06:38:54;;;;;;;9.35;7.93;;;10.00;99.90;;;;;;5048888;28;20108;-56
2022/09/23 06:41:20;;;;;;;10.82;8.52;;;10.10;99.90;;;;;;5047747;28;20045;-55
2022/09/23 06:43:46;;;;;;;9.43;7.82;;;10.10;99.90;;;;;;5054940;28;20021;-54
2022/09/23 06:46:17;;;;;;;10.88;8.25;;;10.10;99.90;;;;;;5048935;28;20056;-57
2022/09/23 06:48:43;;;;;;;13.98;8.65;;;10.20;99.90;;;;;;5051699;28;20025;-56
2022/09/23 06:51:11;;;;;;;10.68;8.27;;;10.20;99.90;;;;;;5049210;28;20028;-55
2022/09/23 06:53:38;;;;;;;13.05;8.43;;;10.20;99.90;;;;;;5047540;28;20508;-54
2022/09/23 06:56:06;;;;;;;10.02;8.32;;;10.20;99.90;;;;;;5050076;28;20009;-55
2022/09/23 06:58:33;;;;;;;11.63;9.00;;;10.30;99.90;;;;;;5049705;28;20013;-54
2022/09/23 07:01:16;;;;;;;10.50;7.30;;;10.30;99.90;;;;;;5049944;28;20493;-57
2022/09/23 07:03:43;;;;;;;16.08;8.52;;;10.40;99.90;;;;;;5047427;28;20025;-55
2022/09/23 07:06:10;;;;;;;12.02;8.43;;;10.40;99.90;;;;;;5048459;28;20385;-56
2022/09/23 07:08:36;;;;;;;8.98;7.50;;;10.40;99.90;;;;;;5048747;28;20025;-56
2022/09/23 07:11:05;;;;;;;12.50;7.80;;;10.50;99.90;;;;;;5050221;28;20025;-56
2022/09/23 07:13:32;;;;;;;14.20;8.45;;;10.50;99.90;;;;;;5050140;28;20083;-55
2022/09/23 07:15:59;;;;;;;10.15;8.32;;;10.50;99.90;;;;;;5049933;28;20035;-55
2022/09/23 07:18:25;;;;;;;11.18;7.85;;;10.60;99.90;;;;;;5050392;28;20013;-56
2022/09/23 07:20:52;;;;;;;12.30;8.45;;;10.60;99.90;;;;;;5051611;28;20079;-54
2022/09/23 07:23:18;;;;;;;11.75;8.45;;;10.60;99.90;;;;;;5043582;28;20125;-54
2022/09/23 07:25:49;;;;;;;12.10;7.97;;;10.60;99.90;;;;;;5051913;28;20108;-56
2022/09/23 07:28:15;;;;;;;10.23;8.77;;;10.60;99.90;;;;;;5053755;28;20023;-56
2022/09/23 07:30:42;;;;;;;9.20;7.30;;;10.70;99.90;;;;;;5051843;28;20017;-55
2022/09/23 07:33:07;;;;;;;12.27;8.35;;;10.70;99.90;;;;;;5052333;28;20021;-54
2022/09/23 07:35:33;;;;;;;11.68;7.60;;;10.70;99.90;;;;;;5052579;28;20074;-55
2022/09/23 07:37:59;;;;;;;12.77;8.13;;;10.80;99.90;;;;;;5051901;28;20021;-56
2022/09/23 07:40:25;;;;;;;12.80;8.43;;;10.90;99.90;;;;;;5053179;28;20106;-54
2022/09/23 07:42:50;;;;;;;12.35;8.02;;;10.90;99.90;;;;;;5051981;28;20111;-56
2022/09/23 07:45:17;;;;;;;10.70;8.25;;;11.00;99.80;;;;;;5053446;28;20040;-54
2022/09/23 07:47:42;;;;;;;10.68;8.52;;;11.00;99.70;;;;;;5053091;28;20017;-55
2022/09/23 07:50:11;;;;;;;11.23;8.60;;;11.00;99.60;;;;;;5053071;28;20025;-56
2022/09/23 07:52:37;;;;;;;13.93;8.98;;;11.10;99.60;;;;;;5051619;28;20029;-53
2022/09/23 07:55:05;;;;;;;10.63;8.45;;;11.10;99.70;;;;;;5051541;28;20385;-56
2022/09/23 07:57:31;;;;;;;12.70;8.80;;;11.10;99.60;;;;;;5054068;28;20021;-56
2022/09/23 07:59:57;;;;;;;13.85;10.95;;;11.20;99.40;;;;;;5052425;28;20035;-55
2022/09/23 08:02:23;;;;;;;9.95;7.95;;;11.20;99.50;;;;;;5050128;28;20397;-55
2022/09/23 08:04:49;;;;;;;10.25;8.43;;;11.30;99.50;;;;;;5053091;28;20104;-55
2022/09/23 08:07:15;;;;;;;13.93;8.60;;;11.40;99.40;;;;;;5050072;28;20473;-56
2022/09/23 08:09:42;;;;;;;11.35;7.53;;;11.50;99.30;;;;;;5050329;28;20075;-56
2022/09/23 08:12:10;;;;;;;9.98;8.15;;;11.60;99.10;;;;;;5052899;28;20071;-56
2022/09/23 08:14:37;;;;;;;10.65;7.70;;;11.60;99.10;;;;;;5044344;28;20030;-54
2022/09/23 08:17:03;;;;;;;13.57;8.88;;;11.80;99.10;;;;;;5052115;28;20020;-56
2022/09/23 08:19:29;;;;;;;11.70;8.05;;;11.80;98.90;;;;;;5052358;28;20489;-56
2022/09/23 08:21:56;;;;;;;10.90;8.20;;;11.90;98.60;;;;;;5049000;28;20123;-56
2022/09/23 08:24:23;;;;;;;12.30;7.85;;;11.90;98.40;;;;;;5052954;28;20108;-56
2022/09/23 08:26:53;;;;;;;12.55;8.45;;;12.10;98.50;;;;;;5045776;28;20033;-55
2022/09/23 08:29:24;;;;;;;10.43;8.95;;;12.20;98.40;;;;;;5049055;28;20029;-55
2022/09/23 08:31:53;;;;;;;11.23;8.60;;;12.30;98.10;;;;;;5051541;28;20370;-56
2022/09/23 08:34:21;;;;;;;10.03;8.93;;;12.50;97.80;;;;;;5048911;28;20025;-56
2022/09/23 08:36:47;;;;;;;10.68;7.85;;;12.60;97.50;;;;;;5041319;28;20064;-56
2022/09/23 08:39:16;;;;;;;9.88;8.73;;;12.70;97.30;;;;;;5049436;28;20044;-56
2022/09/23 08:42:01;;;;;;;;;;;12.90;97.10;;;;;;5048488;28;20793;-56
2022/09/23 08:44:32;;;;;;;10.43;7.97;;;12.90;97.00;;;;;;5044131;28;19912;-56
2022/09/23 08:47:11;;;;;;;8.93;7.47;;;13.00;96.80;;;;;;5051929;28;20539;-56
2022/09/23 08:49:57;;;;;;;10.85;8.52;;;13.20;96.60;;;;;;5051855;28;20100;-56
2022/09/23 08:52:44;;;;;;;12.48;8.80;;;13.30;96.50;;;;;;5051765;28;20104;-56
2022/09/23 08:55:12;;;;;;;10.95;9.85;;;13.40;95.90;;;;;;5050388;28;20104;-56
2022/09/23 08:58:01;;;;;;;11.70;8.52;;;13.50;95.80;;;;;;5051573;28;20013;-56
2022/09/23 09:00:33;;;;;;;11.45;8.07;;;13.60;95.40;;;;;;5048506;28;20021;-56
2022/09/23 09:02:59;;;;;;;9.82;8.10;;;13.60;95.30;;;;;;5053215;28;20033;-56
2022/09/23 09:05:27;;;;;;;9.40;8.02;;;13.70;95.20;;;;;;5048038;28;20032;-55
2022/09/23 09:07:57;;;;;;;9.60;7.50;;;13.70;95.10;;;;;;5052535;28;20560;-56
2022/09/23 09:10:29;;;;;;;9.30;7.68;;;13.80;95.00;;;;;;5052941;28;20041;-55
2022/09/23 09:13:09;;;;;;;10.38;7.75;;;14.00;94.80;;;;;;5050868;28;20493;-56
2022/09/23 09:15:42;;;;;;;8.65;7.68;;;14.10;94.40;;;;;;5043353;28;20032;-56
2022/09/23 09:18:18;;;;;;;9.30;7.35;;;14.20;94.30;;;;;;5052397;28;20398;-57
2022/09/23 09:20:44;;;;;;;10.43;8.07;;;14.30;94.30;;;;;;5047934;28;20016;-56
2022/09/23 09:23:29;;;;;;;11.27;7.93;;;14.40;94.00;;;;;;5062915;28;20087;-55
2022/09/23 09:25:59;;;;;;;10.75;8.20;;;14.50;94.00;;;;;;5060316;28;20569;-57
2022/09/23 09:28:29;;;;;;;8.55;7.45;;;14.60;93.80;;;;;;5057308;28;20115;-57
2022/09/23 09:31:20;;;;;;;8.98;8.05;;;14.70;93.60;;;;;;5059234;28;20032;-55
2022/09/23 09:34:06;;;;;;;10.40;7.72;;;14.70;93.40;;;;;;5047019;28;20033;-57
2022/09/23 09:36:48;;;;;;;11.25;7.82;;;14.80;93.40;;;;;;5009681;28;20140;-56
2022/09/23 09:39:14;;;;;;;9.77;6.70;;;15.00;93.10;;;;;;5062111;28;20056;-56
2022/09/23 09:41:46;;;;;;;10.82;8.15;;;15.10;92.80;;;;;;5057748;28;20102;-56
2022/09/23 09:44:39;;;;;;;10.15;7.20;;;15.20;93.00;;;;;;5052223;28;20500;-57
2022/09/23 09:47:39;;;;;;;8.98;7.07;;;15.20;92.30;;;;;;5054963;28;20120;-57
2022/09/23 09:50:28;;;;;;;;;;;15.40;92.30;;;;;;5050941;28;20021;-57
2022/09/23 09:53:24;;;;;;;11.23;7.95;;;15.40;92.40;;;;;;5037347;28;19917;-56
2022/09/23 09:56:02;;;;;;;8.50;7.60;;;15.50;92.20;;;;;;5043366;28;20032;-57
2022/09/23 09:58:45;;;;;;;10.93;7.40;;;15.70;92.00;;;;;;5041993;28;20021;-57
2022/09/23 10:01:22;;;;;;;8.25;6.82;;;15.80;91.30;;;;;;5061924;28;20477;-57
2022/09/23 10:03:50;;;;;;;10.02;7.60;;;15.90;91.10;;;;;;5048633;28;20115;-56
2022/09/23 10:06:34;;;;;;;10.35;7.63;;;16.00;91.30;;;;;;5025453;28;20133;-56
2022/09/23 10:09:03;;;;;;;9.23;7.45;;;16.20;90.80;;;;;;5036655;28;20033;-57
2022/09/23 10:11:30;;;;;;;9.52;7.38;;;16.30;90.60;;;;;;5052961;28;20036;-56
2022/09/23 10:13:59;;;;;;;7.30;6.18;;;16.40;90.20;;;;;;5055051;28;20025;-57
2022/09/23 10:16:25;;;;;;;9.90;7.75;;;16.60;90.10;;;;;;5051625;28;20048;-57
2022/09/23 10:18:54;;;;;;;9.40;7.10;;;16.80;89.20;;;;;;5036515;28;20069;-56
2022/09/23 10:21:23;;;;;;;8.27;6.18;;;16.90;88.60;;;;;;5052449;28;20047;-56
2022/09/23 10:23:51;;;;;;;7.95;6.65;;;17.10;88.10;;;;;;5051300;28;20033;-56
2022/09/23 10:26:47;;;;;;;9.32;6.63;;;17.30;87.90;;;;;;5051610;28;20450;-57
2022/09/23 10:29:27;;;;;;;7.35;6.53;;;17.50;87.40;;;;;;5049881;28;20017;-56
2022/09/23 10:32:19;;;;;;;8.70;5.95;;;17.60;86.10;;;;;;5046003;28;20120;-57
2022/09/23 10:34:49;;;;;;;8.35;6.53;;;17.80;84.50;;;;;;5044383;28;20028;-57
2022/09/23 10:37:25;;;;;;;9.65;6.38;;;17.90;84.10;;;;;;5034081;28;20450;-56
2022/09/23 10:48:22;;;;;;;9.02;6.35;;;18.40;81.30;;;;;;5045581;28;20044;-56
2022/09/23 10:50:51;;;;;;;9.63;6.80;;;18.40;78.60;;;;;;5047465;28;20021;-56
2022/09/23 10:53:48;;;;;;;7.77;6.90;;;18.40;79.10;;;;;;5050066;28;20029;-57
2022/09/23 10:56:34;;;;;;;10.65;6.80;;;18.30;79.60;;;;;;5051845;28;20255;-57
2022/09/23 10:59:29;;;;;;;7.97;6.90;;;18.30;79.70;;;;;;5052272;28;20025;-57
2022/09/23 11:02:12;;;;;;;8.57;6.32;;;18.20;79.50;;;;;;5032127;28;20478;-57
2022/09/23 11:05:03;;;;;;;11.10;7.93;;;18.20;80.30;;;;;;5052146;28;20032;-57
2022/09/23 11:07:58;;;;;;;10.38;7.22;;;18.20;80.10;;;;;;5051708;28;20048;-57
2022/09/23 11:10:42;;;;;;;10.98;7.30;;;18.20;78.70;;;;;;5065985;28;20053;-57
2022/09/23 11:13:23;;;;;;;10.05;7.03;;;18.20;78.10;;;;;;5055504;28;20103;-56
2022/09/23 11:16:20;;;;;;;11.27;7.57;;;18.20;77.10;;;;;;5043431;28;20393;-56
2022/09/23 11:19:11;;;;;;;12.55;7.57;;;18.40;77.80;;;;;;5063532;28;20018;-56
2022/09/23 11:21:43;;;;;;;10.82;7.47;;;18.30;77.00;;;;;;5066188;28;20112;-55
2022/09/23 11:24:30;;;;;;;12.63;8.60;;;18.30;76.90;;;;;;5053843;28;20217;-57
2022/09/23 11:27:25;;;;;;;13.25;7.50;;;18.30;77.40;;;;;;5054950;28;20029;-57
2022/09/23 11:30:05;;;;;;;9.02;5.75;;;18.30;75.60;;;;;;5050507;28;20025;-57
2022/09/23 11:33:01;;;;;;;8.95;5.95;;;18.40;74.50;;;;;;5048775;28;20068;-56
2022/09/23 11:35:46;;;;;;;9.68;6.00;;;18.50;73.40;;;;;;5052515;28;20020;-57
2022/09/23 11:38:35;;;;;;;10.50;6.68;;;18.80;73.50;;;;;;5044579;28;20484;-57
2022/09/23 11:41:14;;;;;;;11.10;5.90;;;18.90;73.30;;;;;;5050258;28;20492;-56
2022/09/23 11:43:41;;;;;;;11.52;7.40;;;18.90;72.70;;;;;;5053605;28;20065;-57
2022/09/23 11:46:34;;;;;;;11.13;7.03;;;19.00;73.20;;;;;;5054089;28;20419;-56
2022/09/23 11:49:38;;;;;;;10.57;7.22;;;19.10;73.00;;;;;;5054454;28;20059;-57
2022/09/23 11:52:23;;;;;;;10.40;5.50;;;19.40;72.80;;;;;;5052933;28;20025;-57
2022/09/23 11:54:56;;;;;;;9.95;5.45;;;19.40;69.30;;;;;;5054347;28;20032;-56
2022/09/23 11:57:32;;;;;;;9.80;7.47;;;19.40;70.00;;;;;;5053098;28;20104;-56
2022/09/23 12:00:11;;;;;;;12.45;7.05;;;19.60;71.00;;;;;;5053381;28;20021;-56
2022/09/23 12:03:14;;;;;;;8.68;6.70;;;19.50;71.40;;;;;;5043132;28;20032;-57
2022/09/23 12:05:47;;;;;;;10.10;6.40;;;19.70;71.90;;;;;;4997050;28;20037;-56
2022/09/23 12:08:25;;;;;;;6.80;5.82;;;19.70;69.50;;;;;;5053794;28;20481;-57
2022/09/23 12:11:11;;;;;;;10.75;6.05;;;19.60;70.00;;;;;;5054455;28;20036;-57
2022/09/23 12:13:50;;;;;;;8.73;5.78;;;19.50;71.80;;;;;;5053273;28;20096;-57
2022/09/23 12:16:56;;;;;;;7.05;5.60;;;19.40;70.20;;;;;;5050986;28;20028;-57
2022/09/23 12:19:50;;;;;;;8.50;6.07;;;19.30;70.00;;;;;;5047502;28;20026;-57
2022/09/23 12:22:25;;;;;;;7.93;4.97;;;19.20;70.10;;;;;;5035883;28;20030;-56
2022/09/23 12:24:57;;;;;;;6.88;4.63;;;19.20;70.40;;;;;;5053973;28;20384;-57
2022/09/23 12:27:44;;;;;;;10.40;5.40;;;19.40;71.10;;;;;;5053749;28;20021;-56
2022/09/23 12:30:15;;;;;;;6.70;4.28;;;19.50;68.50;;;;;;5051758;28;20060;-57
2022/09/23 12:32:41;;;;;;;7.43;4.28;;;19.40;67.70;;;;;;5046855;28;20017;-56
2022/09/23 12:35:20;;;;;;;8.07;4.43;;;19.30;68.20;;;;;;5052866;28;20044;-56
2022/09/23 12:37:46;;;;;;;7.78;4.97;;;19.40;68.10;;;;;;5063599;28;20013;-57
2022/09/23 12:40:44;;;;;;;7.13;3.75;;;19.40;69.30;;;;;;5041005;28;20021;-57
2022/09/23 12:43:33;;;;;;;5.63;4.20;;;19.50;68.10;;;;;;5040779;28;20385;-57
2022/09/23 12:46:26;;;;;;;11.25;4.28;;;19.40;66.70;;;;;;5058357;28;20489;-56
2022/09/23 12:48:57;;;;;;;6.97;4.78;;;19.40;66.60;;;;;;5047455;28;20044;-57
2022/09/23 12:51:28;;;;;;;5.30;3.45;;;19.30;67.20;;;;;;5055313;28;20555;-57
2022/09/23 12:54:21;;;;;;;5.32;3.40;;;19.20;67.00;;;;;;5056544;28;20052;-56
2022/09/23 12:56:53;;;;;;;7.85;3.97;;;19.20;67.00;;;;;;5042921;28;20036;-56
2022/09/23 12:59:30;;;;;;;6.78;4.10;;;19.20;68.30;;;;;;5070461;28;20028;-56
2022/09/23 13:01:56;;;;;;;6.88;4.20;;;19.10;68.00;;;;;;5058412;28;20029;-56
2022/09/23 13:07:32;;;;;;;7.00;4.15;;;19.20;68.30;;;;;;5055708;28;20031;-57
2022/09/23 13:10:28;;;;;;;7.57;3.47;;;19.00;67.40;;;;;;5054935;28;20021;-56
2022/09/23 13:12:55;;;;;;;4.15;3.13;;;19.10;68.50;;;;;;5047974;28;20033;-57
2022/09/23 13:15:33;;;;;;;7.45;3.95;;;19.10;68.70;;;;;;5035718;28;20053;-57
2022/09/23 13:18:20;;;;;;;7.80;3.28;;;19.20;68.40;;;;;;5032225;28;20091;-57
2022/09/23 13:20:49;;;;;;;6.50;3.20;;;19.20;67.70;;;;;;5055942;28;20017;-57
2022/09/23 13:23:27;;;;;;;6.55;3.63;;;19.20;68.60;;;;;;5045602;28;20120;-55
2022/09/23 13:26:09;;;;;;;4.35;2.50;;;19.30;68.20;;;;;;5050704;28;20553;-57
2022/09/23 13:28:52;;;;;;;4.05;2.85;;;19.30;67.30;;;;;;5058144;28;20499;-56